createdAt,value
2017-10-25T00:00:08.204Z,0
2017-10-25T00:01:08.544Z,0
2017-10-25T00:02:08.481Z,0
2017-10-25T00:03:08.131Z,0
2017-10-25T00:04:08.430Z,0
2017-10-25T00:05:08.408Z,0
2017-10-25T00:06:08.381Z,0
2017-10-25T00:07:08.380Z,0
2017-10-25T00:08:08.337Z,0
2017-10-25T00:09:08.320Z,0
2017-10-25T00:10:08.298Z,0
2017-10-25T00:11:08.279Z,0
2017-10-25T00:12:08.261Z,0
2017-10-25T00:13:08.247Z,0
2017-10-25T00:14:08.204Z,0
2017-10-25T00:15:08.196Z,0
2017-10-25T00:16:08.177Z,0
2017-10-25T00:17:08.171Z,0
2017-10-25T00:18:08.138Z,0
2017-10-25T00:19:08.113Z,0
2017-10-25T00:20:07.774Z,0
2017-10-25T00:21:08.074Z,0
2017-10-25T00:22:07.721Z,0
2017-10-25T00:23:08.014Z,0
2017-10-25T00:24:07.988Z,0
2017-10-25T00:25:07.977Z,0
2017-10-25T00:26:07.631Z,0
2017-10-25T00:27:07.941Z,0
2017-10-25T00:28:07.921Z,0
2017-10-25T00:29:07.889Z,0
2017-10-25T00:30:07.869Z,0
2017-10-25T00:31:07.845Z,0
2017-10-25T00:32:07.188Z,0
2017-10-25T00:33:07.483Z,0
2017-10-25T00:34:07.780Z,0
2017-10-25T00:35:07.441Z,0
2017-10-25T00:36:07.778Z,0
2017-10-25T00:37:07.733Z,0
2017-10-25T00:38:07.708Z,0
2017-10-25T00:39:07.680Z,0
2017-10-25T00:40:07.653Z,0
2017-10-25T00:41:07.635Z,0
2017-10-25T00:42:07.621Z,0
2017-10-25T00:43:07.604Z,0
2017-10-25T00:44:07.571Z,0
2017-10-25T00:45:07.544Z,0
2017-10-25T00:46:07.541Z,0
2017-10-25T00:47:07.514Z,0
2017-10-25T00:48:07.476Z,0
2017-10-25T00:49:07.454Z,0
2017-10-25T00:50:07.446Z,0
2017-10-25T00:51:07.414Z,0
2017-10-25T00:52:07.391Z,0
2017-10-25T00:53:07.381Z,0
2017-10-25T00:54:07.360Z,0
2017-10-25T00:55:07.339Z,0
2017-10-25T00:56:07.312Z,0
2017-10-25T00:57:07.291Z,0
2017-10-25T00:58:07.251Z,0
2017-10-25T00:59:07.246Z,0
2017-10-25T01:00:07.232Z,0
2017-10-25T01:01:06.878Z,0
2017-10-25T01:02:07.178Z,0
2017-10-25T01:03:07.165Z,0
2017-10-25T01:04:07.150Z,0
2017-10-25T01:05:07.121Z,0
2017-10-25T01:06:07.092Z,0
2017-10-25T01:07:07.072Z,0
2017-10-25T01:08:07.078Z,0
2017-10-25T01:09:07.027Z,0
2017-10-25T01:10:06.684Z,0
2017-10-25T01:11:06.992Z,0
2017-10-25T01:12:06.648Z,0
2017-10-25T01:13:06.941Z,0
2017-10-25T01:14:06.916Z,0
2017-10-25T01:15:06.904Z,0
2017-10-25T01:16:06.868Z,0
2017-10-25T01:17:06.861Z,0
2017-10-25T01:18:06.527Z,0
2017-10-25T01:19:06.821Z,0
2017-10-25T01:20:06.792Z,0
2017-10-25T01:21:06.765Z,0
2017-10-25T01:22:06.752Z,0
2017-10-25T01:23:06.719Z,0
2017-10-25T01:24:06.722Z,0
2017-10-25T01:25:06.365Z,0
2017-10-25T01:26:06.650Z,0
2017-10-25T01:27:06.636Z,0
2017-10-25T01:28:06.611Z,0
2017-10-25T01:29:06.610Z,0
2017-10-25T01:30:06.578Z,0
2017-10-25T01:31:06.561Z,0
2017-10-25T01:32:06.214Z,0
2017-10-25T01:33:06.187Z,0
2017-10-25T01:34:06.509Z,0
2017-10-25T01:35:06.471Z,0
2017-10-25T01:36:06.444Z,0
2017-10-25T01:37:06.429Z,0
2017-10-25T01:38:06.405Z,0
2017-10-25T01:39:06.058Z,0
2017-10-25T01:40:06.376Z,0
2017-10-25T01:41:06.012Z,0
2017-10-25T01:42:06.320Z,0
2017-10-25T01:43:06.309Z,0
2017-10-25T01:44:06.286Z,0
2017-10-25T01:45:06.246Z,0
2017-10-25T01:46:06.271Z,0
2017-10-25T01:47:05.894Z,0
2017-10-25T01:48:06.183Z,0
2017-10-25T01:49:06.159Z,0
2017-10-25T01:50:06.147Z,0
2017-10-25T01:51:05.814Z,0
2017-10-25T01:52:06.117Z,0
2017-10-25T01:53:06.086Z,0
2017-10-25T01:54:05.735Z,0
2017-10-25T01:55:06.043Z,0
2017-10-25T01:56:06.042Z,0
2017-10-25T01:57:06.000Z,0
2017-10-25T01:58:06.019Z,0
2017-10-25T01:59:05.626Z,0
2017-10-25T02:00:05.926Z,0
2017-10-25T02:01:06.274Z,0
2017-10-25T02:02:05.882Z,0
2017-10-25T02:03:05.879Z,0
2017-10-25T02:04:05.852Z,0
2017-10-25T02:05:05.840Z,0
2017-10-25T02:06:05.821Z,0
2017-10-25T02:07:05.788Z,0
2017-10-25T02:08:05.427Z,0
2017-10-25T02:09:05.726Z,0
2017-10-25T02:10:05.407Z,0
2017-10-25T02:11:05.055Z,0
2017-10-25T02:12:05.689Z,0
2017-10-25T02:13:05.654Z,0
2017-10-25T02:14:05.628Z,0
2017-10-25T02:15:05.611Z,0
2017-10-25T02:16:05.262Z,0
2017-10-25T02:17:05.242Z,0
2017-10-25T02:18:05.550Z,0
2017-10-25T02:19:05.520Z,0
2017-10-25T02:20:05.512Z,0
2017-10-25T02:21:05.466Z,0
2017-10-25T02:22:05.447Z,0
2017-10-25T02:23:05.436Z,0
2017-10-25T02:24:05.406Z,0
2017-10-25T02:25:05.392Z,0
2017-10-25T02:26:05.373Z,0
2017-10-25T02:27:05.337Z,0
2017-10-25T02:28:05.323Z,0
2017-10-25T02:29:04.977Z,0
2017-10-25T02:30:04.962Z,0
2017-10-25T02:31:05.285Z,0
2017-10-25T02:32:04.917Z,0
2017-10-25T02:33:05.222Z,0
2017-10-25T02:34:05.233Z,0
2017-10-25T02:35:05.174Z,0
2017-10-25T02:36:05.197Z,0
2017-10-25T02:37:05.132Z,0
2017-10-25T02:38:05.110Z,0
2017-10-25T02:39:05.085Z,0
2017-10-25T02:40:05.072Z,0
2017-10-25T02:41:05.042Z,0
2017-10-25T02:42:05.053Z,0
2017-10-25T02:43:05.004Z,0
2017-10-25T02:44:04.652Z,0
2017-10-25T02:45:04.964Z,0
2017-10-25T02:46:04.933Z,0
2017-10-25T02:47:04.917Z,0
2017-10-25T02:48:04.935Z,0
2017-10-25T02:49:04.877Z,0
2017-10-25T02:50:04.863Z,0
2017-10-25T02:51:04.844Z,0
2017-10-25T02:52:04.487Z,0
2017-10-25T02:53:04.782Z,0
2017-10-25T02:54:04.459Z,0
2017-10-25T02:55:04.744Z,0
2017-10-25T02:56:04.720Z,0
2017-10-25T02:57:04.714Z,0
2017-10-25T02:58:04.688Z,0
2017-10-25T02:59:04.652Z,0
2017-10-25T03:00:04.634Z,0
2017-10-25T03:01:04.630Z,0
2017-10-25T03:02:04.589Z,0
2017-10-25T03:03:04.570Z,0
2017-10-25T03:04:04.550Z,0
2017-10-25T03:05:03.878Z,0
2017-10-25T03:06:04.516Z,0
2017-10-25T03:07:04.477Z,0
2017-10-25T03:08:04.465Z,0
2017-10-25T03:09:04.436Z,0
2017-10-25T03:10:04.417Z,0
2017-10-25T03:11:04.397Z,0
2017-10-25T03:12:04.381Z,0
2017-10-25T03:13:04.358Z,0
2017-10-25T03:14:04.012Z,0
2017-10-25T03:15:04.314Z,0
2017-10-25T03:16:04.299Z,0
2017-10-25T03:17:04.279Z,0
2017-10-25T03:18:04.251Z,0
2017-10-25T03:19:04.227Z,0
2017-10-25T03:20:04.197Z,0
2017-10-25T03:21:04.201Z,0
2017-10-25T03:22:04.191Z,0
2017-10-25T03:23:04.140Z,0
2017-10-25T03:24:04.122Z,0
2017-10-25T03:25:04.089Z,0
2017-10-25T03:26:04.080Z,0
2017-10-25T03:27:04.071Z,0
2017-10-25T03:28:04.025Z,0
2017-10-25T03:29:03.997Z,0
2017-10-25T03:30:03.976Z,0
2017-10-25T03:31:03.970Z,0
2017-10-25T03:32:03.951Z,0
2017-10-25T03:33:03.925Z,0
2017-10-25T03:34:03.898Z,0
2017-10-25T03:35:03.876Z,0
2017-10-25T03:36:03.887Z,0
2017-10-25T03:37:03.824Z,0
2017-10-25T03:38:03.826Z,0
2017-10-25T03:39:03.804Z,0
2017-10-25T03:40:03.779Z,0
2017-10-25T03:41:03.759Z,0
2017-10-25T03:42:03.397Z,0
2017-10-25T03:43:03.705Z,0
2017-10-25T03:44:03.682Z,0
2017-10-25T03:45:03.654Z,0
2017-10-25T03:46:03.639Z,0
2017-10-25T03:47:03.296Z,0
2017-10-25T03:48:03.587Z,0
2017-10-25T03:49:03.569Z,0
2017-10-25T03:50:03.547Z,0
2017-10-25T03:51:03.551Z,0
2017-10-25T03:52:03.507Z,0
2017-10-25T03:53:03.483Z,0
2017-10-25T03:54:03.487Z,0
2017-10-25T03:55:03.452Z,0
2017-10-25T03:56:03.418Z,0
2017-10-25T03:57:03.084Z,0
2017-10-25T03:58:03.386Z,0
2017-10-25T03:59:03.036Z,0
2017-10-25T04:00:03.336Z,0
2017-10-25T04:01:03.309Z,0
2017-10-25T04:02:03.300Z,0
2017-10-25T04:03:03.270Z,0
2017-10-25T04:04:03.252Z,0
2017-10-25T04:05:03.230Z,0
2017-10-25T04:06:03.202Z,0
2017-10-25T04:07:03.182Z,0
2017-10-25T04:08:03.167Z,0
2017-10-25T04:09:03.148Z,0
2017-10-25T04:10:03.121Z,0
2017-10-25T04:11:03.115Z,0
2017-10-25T04:12:03.079Z,0
2017-10-25T04:13:03.046Z,0
2017-10-25T04:14:03.041Z,0
2017-10-25T04:15:03.032Z,0
2017-10-25T04:16:03.004Z,0
2017-10-25T04:17:02.979Z,0
2017-10-25T04:18:02.950Z,0
2017-10-25T04:19:02.609Z,0
2017-10-25T04:20:02.919Z,0
2017-10-25T04:21:02.881Z,0
2017-10-25T04:22:02.853Z,0
2017-10-25T04:23:02.844Z,0
2017-10-25T04:24:02.503Z,0
2017-10-25T04:25:02.162Z,0
2017-10-25T04:26:02.793Z,0
2017-10-25T04:27:02.435Z,0
2017-10-25T04:28:02.733Z,0
2017-10-25T04:29:02.397Z,0
2017-10-25T04:30:02.684Z,0
2017-10-25T04:31:02.665Z,0
2017-10-25T04:32:02.652Z,0
2017-10-25T04:33:02.625Z,0
2017-10-25T04:34:02.636Z,0
2017-10-25T04:35:02.576Z,0
2017-10-25T04:36:02.233Z,0
2017-10-25T04:37:02.542Z,0
2017-10-25T04:38:02.923Z,0
2017-10-25T04:39:02.498Z,0
2017-10-25T04:40:02.466Z,0
2017-10-25T04:41:02.451Z,0
2017-10-25T04:42:02.424Z,0
2017-10-25T04:43:02.405Z,0
2017-10-25T04:44:02.073Z,0
2017-10-25T04:45:02.369Z,0
2017-10-25T04:46:02.370Z,0
2017-10-25T04:47:02.343Z,0
2017-10-25T04:48:02.304Z,0
2017-10-25T04:49:02.285Z,0
2017-10-25T04:50:01.946Z,0
2017-10-25T04:51:01.924Z,0
2017-10-25T04:52:02.233Z,0
2017-10-25T04:53:01.875Z,0
2017-10-25T04:54:02.217Z,0
2017-10-25T04:55:02.140Z,0
2017-10-25T04:56:02.122Z,0
2017-10-25T04:57:02.118Z,0
2017-10-25T04:58:02.086Z,0
2017-10-25T04:59:02.092Z,0
2017-10-25T05:00:02.045Z,0
2017-10-25T05:01:02.374Z,0
2017-10-25T05:02:01.998Z,0
2017-10-25T05:03:01.984Z,0
2017-10-25T05:04:01.085Z,0
2017-10-25T05:05:01.945Z,0
2017-10-25T05:06:01.916Z,0
2017-10-25T05:07:01.893Z,0
2017-10-25T05:08:01.898Z,0
2017-10-25T05:09:01.842Z,0
2017-10-25T05:10:01.520Z,0
2017-10-25T05:11:01.494Z,0
2017-10-25T05:12:01.797Z,0
2017-10-25T05:13:01.786Z,0
2017-10-25T05:14:01.739Z,0
2017-10-25T05:15:01.728Z,0
2017-10-25T05:16:01.703Z,0
2017-10-25T05:17:01.701Z,0
2017-10-25T05:18:01.662Z,0
2017-10-25T05:19:01.636Z,0
2017-10-25T05:20:01.612Z,0
2017-10-25T05:21:01.608Z,0
2017-10-25T05:22:01.567Z,0
2017-10-25T05:23:01.563Z,0
2017-10-25T05:24:01.526Z,0
2017-10-25T05:25:01.519Z,0
2017-10-25T05:26:01.479Z,0
2017-10-25T05:27:01.809Z,0
2017-10-25T05:28:01.436Z,0
2017-10-25T05:29:01.427Z,0
2017-10-25T05:30:01.427Z,0
2017-10-25T05:31:01.382Z,0
2017-10-25T05:32:01.356Z,0
2017-10-25T05:33:01.338Z,0
2017-10-25T05:34:01.309Z,0
2017-10-25T05:35:01.286Z,0
2017-10-25T05:36:01.272Z,0
2017-10-25T05:37:01.247Z,0
2017-10-25T05:38:01.236Z,0
2017-10-25T05:39:01.202Z,0
2017-10-25T05:40:01.182Z,0
2017-10-25T05:41:01.174Z,0
2017-10-25T05:42:00.503Z,0
2017-10-25T05:43:01.153Z,0
2017-10-25T05:44:01.104Z,0
2017-10-25T05:45:01.071Z,0
2017-10-25T05:46:01.050Z,0
2017-10-25T05:47:01.046Z,0
2017-10-25T05:48:01.008Z,0
2017-10-25T05:49:00.990Z,0
2017-10-25T05:50:00.658Z,0
2017-10-25T05:51:00.935Z,0
2017-10-25T05:52:00.958Z,0
2017-10-25T05:53:00.584Z,0
2017-10-25T05:54:00.888Z,0
2017-10-25T05:55:00.862Z,0
2017-10-25T05:56:00.846Z,0
2017-10-25T05:57:00.812Z,0
2017-10-25T05:58:00.797Z,0
2017-10-25T05:59:00.779Z,0
2017-10-25T06:00:00.752Z,0
2017-10-25T06:01:00.740Z,0
2017-10-25T06:02:00.388Z,0
2017-10-25T06:03:00.683Z,0
2017-10-25T06:04:00.344Z,0
2017-10-25T06:05:00.644Z,0
2017-10-25T06:06:00.619Z,0
2017-10-25T06:07:00.603Z,0
2017-10-25T06:08:00.599Z,0
2017-10-25T06:09:00.572Z,0
2017-10-25T06:10:00.539Z,0
2017-10-25T06:11:00.202Z,5
2017-10-25T06:12:00.493Z,5
2017-10-25T06:13:00.466Z,5
2017-10-25T06:14:00.457Z,5
2017-10-25T06:15:00.426Z,5
2017-10-25T06:16:00.406Z,5
2017-10-25T06:17:00.061Z,5
2017-10-25T06:18:00.362Z,5
2017-10-25T06:19:00.359Z,10
2017-10-25T06:20:00.319Z,10
2017-10-25T06:21:00.304Z,10
2017-10-25T06:22:00.288Z,10
2017-10-25T06:23:00.248Z,10
2017-10-25T06:23:59.921Z,10
2017-10-25T06:25:00.204Z,10
2017-10-25T06:26:00.195Z,10
2017-10-25T06:27:00.165Z,10
2017-10-25T06:28:00.158Z,15
2017-10-25T06:29:00.123Z,20
2017-10-25T06:30:00.104Z,20
2017-10-25T06:31:00.073Z,20
2017-10-25T06:32:00.067Z,25
2017-10-25T06:33:00.047Z,25
2017-10-25T06:34:00.024Z,25
2017-10-25T06:34:59.982Z,25
2017-10-25T06:35:59.980Z,25
2017-10-25T06:36:59.946Z,25
2017-10-25T06:37:59.931Z,30
2017-10-25T06:38:59.925Z,30
2017-10-25T06:39:59.902Z,35
2017-10-25T06:40:59.859Z,30
2017-10-25T06:41:59.841Z,30
2017-10-25T06:42:59.830Z,35
2017-10-25T06:43:59.801Z,40
2017-10-25T06:44:59.788Z,40
2017-10-25T06:45:59.745Z,40
2017-10-25T06:46:59.743Z,30
2017-10-25T06:47:59.726Z,25
2017-10-25T06:48:59.698Z,25
2017-10-25T06:49:59.676Z,30
2017-10-25T06:50:59.653Z,45
2017-10-25T06:51:59.620Z,55
2017-10-25T06:52:59.621Z,35
2017-10-25T06:53:59.274Z,30
2017-10-25T06:54:59.558Z,40
2017-10-25T06:55:59.217Z,45
2017-10-25T06:56:59.516Z,50
2017-10-25T06:57:59.500Z,60
2017-10-25T06:58:59.149Z,55
2017-10-25T07:00:59.754Z,55
2017-10-25T07:01:59.435Z,70
2017-10-25T07:02:59.422Z,70
2017-10-25T07:04:59.362Z,60
2017-10-25T07:05:59.317Z,55
2017-10-25T07:06:59.300Z,70
2017-10-25T07:07:59.270Z,85
2017-10-25T07:08:59.270Z,90
2017-10-25T07:09:59.248Z,90
2017-10-25T07:10:59.220Z,95
2017-10-25T07:11:58.869Z,95
2017-10-25T07:12:59.187Z,90
2017-10-25T07:13:59.165Z,80
2017-10-25T07:14:58.803Z,90
2017-10-25T07:15:58.779Z,90
2017-10-25T07:16:59.088Z,85
2017-10-25T07:17:59.067Z,75
2017-10-25T07:18:59.036Z,65
2017-10-25T07:19:58.703Z,65
2017-10-25T07:20:59.007Z,70
2017-10-25T07:21:58.980Z,90
2017-10-25T07:22:58.961Z,105
2017-10-25T07:23:58.940Z,115
2017-10-25T07:24:58.949Z,120
2017-10-25T07:25:58.895Z,120
2017-10-25T07:26:58.878Z,115
2017-10-25T07:27:58.838Z,115
2017-10-25T07:28:58.834Z,115
2017-10-25T07:29:58.801Z,125
2017-10-25T07:30:58.798Z,130
2017-10-25T07:31:58.765Z,135
2017-10-25T07:32:58.745Z,135
2017-10-25T07:33:58.720Z,140
2017-10-25T07:34:58.371Z,145
2017-10-25T07:35:58.360Z,135
2017-10-25T07:36:58.660Z,145
2017-10-25T07:37:58.640Z,160
2017-10-25T07:38:58.618Z,170
2017-10-25T07:39:58.608Z,155
2017-10-25T07:40:58.571Z,160
2017-10-25T07:41:58.564Z,155
2017-10-25T07:42:58.539Z,145
2017-10-25T07:43:58.516Z,140
2017-10-25T07:44:58.486Z,145
2017-10-25T07:45:58.162Z,160
2017-10-25T07:46:58.140Z,155
2017-10-25T07:47:58.104Z,165
2017-10-25T07:48:58.406Z,190
2017-10-25T07:49:58.422Z,195
2017-10-25T07:50:58.371Z,215
2017-10-25T07:51:58.022Z,195
2017-10-25T07:52:58.318Z,255
2017-10-25T07:53:58.309Z,245
2017-10-25T07:54:57.964Z,255
2017-10-25T07:55:57.949Z,275
2017-10-25T07:56:58.251Z,280
2017-10-25T07:57:58.223Z,265
2017-10-25T07:58:58.213Z,255
2017-10-25T07:59:58.176Z,260
2017-10-25T08:00:58.157Z,230
2017-10-25T08:01:58.152Z,250
2017-10-25T08:02:58.116Z,245
2017-10-25T08:03:58.103Z,245
2017-10-25T08:04:57.783Z,255
2017-10-25T08:05:57.742Z,255
2017-10-25T08:06:57.717Z,245
2017-10-25T08:07:58.016Z,240
2017-10-25T08:08:58.006Z,250
2017-10-25T08:09:57.990Z,255
2017-10-25T08:10:57.963Z,275
2017-10-25T08:11:57.939Z,275
2017-10-25T08:12:57.919Z,250
2017-10-25T08:13:57.923Z,280
2017-10-25T08:14:57.567Z,275
2017-10-25T08:15:57.856Z,225
2017-10-25T08:16:57.863Z,245
2017-10-25T08:17:57.821Z,210
2017-10-25T08:18:57.821Z,230
2017-10-25T08:19:57.802Z,255
2017-10-25T08:20:57.770Z,220
2017-10-25T08:21:57.431Z,240
2017-10-25T08:22:57.740Z,230
2017-10-25T08:23:57.708Z,295
2017-10-25T08:24:57.706Z,295
2017-10-25T08:25:57.692Z,330
2017-10-25T08:26:57.659Z,310
2017-10-25T08:27:57.633Z,280
2017-10-25T08:28:57.619Z,270
2017-10-25T08:29:57.597Z,245
2017-10-25T08:30:57.572Z,220
2017-10-25T08:31:57.590Z,200
2017-10-25T08:32:57.230Z,160
2017-10-25T08:33:57.215Z,160
2017-10-25T08:34:57.590Z,190
2017-10-25T08:35:57.233Z,190
2017-10-25T08:36:57.524Z,220
2017-10-25T08:37:57.652Z,195
2017-10-25T08:38:57.569Z,195
2017-10-25T08:39:57.480Z,205
2017-10-25T08:40:57.432Z,200
2017-10-25T08:41:57.421Z,165
2017-10-25T08:42:56.717Z,130
2017-10-25T08:43:57.359Z,135
2017-10-25T08:44:57.332Z,135
2017-10-25T08:45:57.310Z,125
2017-10-25T08:46:57.269Z,105
2017-10-25T08:47:56.939Z,110
2017-10-25T08:48:57.232Z,125
2017-10-25T08:49:57.237Z,130
2017-10-25T08:50:56.867Z,130
2017-10-25T08:51:56.856Z,135
2017-10-25T08:52:57.152Z,155
2017-10-25T08:53:57.128Z,180
2017-10-25T08:54:57.125Z,220
2017-10-25T08:55:57.088Z,205
2017-10-25T08:56:57.069Z,235
2017-10-25T08:57:56.729Z,280
2017-10-25T08:58:57.041Z,255
2017-10-25T08:59:57.014Z,310
2017-10-25T09:00:56.669Z,290
2017-10-25T09:01:56.975Z,345
2017-10-25T09:02:56.956Z,320
2017-10-25T09:03:56.942Z,315
2017-10-25T09:04:56.915Z,270
2017-10-25T09:05:56.885Z,275
2017-10-25T09:06:56.862Z,260
2017-10-25T09:07:56.220Z,270
2017-10-25T09:08:56.834Z,275
2017-10-25T09:09:56.807Z,270
2017-10-25T09:10:56.792Z,260
2017-10-25T09:11:56.778Z,225
2017-10-25T09:12:56.751Z,185
2017-10-25T09:13:56.401Z,185
2017-10-25T09:14:56.701Z,245
2017-10-25T09:15:56.705Z,245
2017-10-25T09:16:56.684Z,225
2017-10-25T09:17:56.651Z,260
2017-10-25T09:18:56.631Z,330
2017-10-25T09:19:56.601Z,330
2017-10-25T09:20:56.576Z,295
2017-10-25T09:21:56.570Z,235
2017-10-25T09:22:56.557Z,275
2017-10-25T09:23:56.534Z,285
2017-10-25T09:24:56.507Z,275
2017-10-25T09:25:56.162Z,290
2017-10-25T09:26:56.468Z,270
2017-10-25T09:27:56.445Z,260
2017-10-25T09:28:56.435Z,270
2017-10-25T09:29:56.416Z,265
2017-10-25T09:30:56.385Z,275
2017-10-25T09:31:56.374Z,280
2017-10-25T09:32:56.358Z,255
2017-10-25T09:33:56.331Z,225
2017-10-25T09:34:56.305Z,250
2017-10-25T09:35:56.281Z,210
2017-10-25T09:36:56.271Z,170
2017-10-25T09:37:56.247Z,160
2017-10-25T09:38:56.224Z,160
2017-10-25T09:39:56.219Z,150
2017-10-25T09:40:56.179Z,155
2017-10-25T09:41:55.845Z,125
2017-10-25T09:42:56.142Z,105
2017-10-25T09:43:56.151Z,145
2017-10-25T09:44:56.112Z,245
2017-10-25T09:45:56.084Z,265
2017-10-25T09:46:56.072Z,220
2017-10-25T09:47:56.039Z,190
2017-10-25T09:48:56.027Z,160
2017-10-25T09:49:56.008Z,130
2017-10-25T09:50:55.986Z,105
2017-10-25T09:51:55.976Z,105
2017-10-25T09:52:55.953Z,90
2017-10-25T09:53:55.923Z,70
2017-10-25T09:54:55.578Z,85
2017-10-25T09:55:55.891Z,95
2017-10-25T09:56:55.552Z,135
2017-10-25T09:57:55.517Z,160
2017-10-25T09:58:55.824Z,165
2017-10-25T09:59:55.794Z,160
2017-10-25T10:00:55.784Z,155
2017-10-25T10:01:55.756Z,150
2017-10-25T10:02:55.739Z,135
2017-10-25T10:03:55.730Z,115
2017-10-25T10:04:55.376Z,120
2017-10-25T10:05:55.685Z,130
2017-10-25T10:06:55.659Z,125
2017-10-25T10:07:55.641Z,120
2017-10-25T10:08:55.610Z,110
2017-10-25T10:09:55.602Z,100
2017-10-25T10:10:55.609Z,110
2017-10-25T10:11:55.555Z,115
2017-10-25T10:12:55.522Z,125
2017-10-25T10:13:55.506Z,125
2017-10-25T10:14:55.497Z,130
2017-10-25T10:15:55.486Z,160
2017-10-25T10:16:55.450Z,185
2017-10-25T10:17:55.440Z,195
2017-10-25T10:18:55.409Z,210
2017-10-25T10:19:55.418Z,230
2017-10-25T10:20:55.359Z,245
2017-10-25T10:21:55.350Z,255
2017-10-25T10:22:55.328Z,270
2017-10-25T10:23:55.305Z,300
2017-10-25T10:24:55.283Z,305
2017-10-25T10:25:55.283Z,285
2017-10-25T10:26:55.248Z,290
2017-10-25T10:27:55.220Z,300
2017-10-25T10:28:54.883Z,330
2017-10-25T10:29:55.185Z,360
2017-10-25T10:30:55.159Z,365
2017-10-25T10:31:55.139Z,335
2017-10-25T10:32:54.806Z,285
2017-10-25T10:33:55.095Z,255
2017-10-25T10:34:55.077Z,235
2017-10-25T10:35:54.744Z,235
2017-10-25T10:36:55.031Z,250
2017-10-25T10:37:55.016Z,260
2017-10-25T10:38:54.997Z,235
2017-10-25T10:39:54.986Z,240
2017-10-25T10:40:54.954Z,250
2017-10-25T10:41:54.937Z,270
2017-10-25T10:42:54.913Z,280
2017-10-25T10:43:54.903Z,275
2017-10-25T10:44:54.874Z,270
2017-10-25T10:45:54.852Z,230
2017-10-25T10:46:54.855Z,215
2017-10-25T10:47:54.498Z,220
2017-10-25T10:48:54.471Z,215
2017-10-25T10:49:54.460Z,220
2017-10-25T10:50:54.756Z,185
2017-10-25T10:51:54.415Z,165
2017-10-25T10:52:54.396Z,150
2017-10-25T10:53:54.706Z,135
2017-10-25T10:54:54.675Z,150
2017-10-25T10:55:54.666Z,155
2017-10-25T10:56:54.627Z,170
2017-10-25T10:57:54.611Z,195
2017-10-25T10:58:54.290Z,215
2017-10-25T10:59:54.602Z,155
2017-10-25T11:00:54.236Z,110
2017-10-25T11:01:54.532Z,100
2017-10-25T11:02:54.508Z,90
2017-10-25T11:03:54.501Z,75
2017-10-25T11:04:54.468Z,85
2017-10-25T11:05:53.812Z,75
2017-10-25T11:06:54.418Z,70
2017-10-25T11:07:54.415Z,80
2017-10-25T11:08:54.379Z,90
2017-10-25T11:09:54.370Z,115
2017-10-25T11:10:53.708Z,115
2017-10-25T11:11:54.002Z,105
2017-10-25T11:12:54.302Z,110
2017-10-25T11:13:53.659Z,105
2017-10-25T11:14:54.255Z,95
2017-10-25T11:15:54.241Z,80
2017-10-25T11:16:54.216Z,75
2017-10-25T11:17:54.209Z,65
2017-10-25T11:18:54.191Z,80
2017-10-25T11:19:53.827Z,90
2017-10-25T11:20:53.820Z,80
2017-10-25T11:21:54.463Z,95
2017-10-25T11:22:54.116Z,110
2017-10-25T11:23:54.076Z,115
2017-10-25T11:24:54.058Z,130
2017-10-25T11:25:53.725Z,120
2017-10-25T11:26:54.014Z,140
2017-10-25T11:27:53.988Z,150
2017-10-25T11:28:54.327Z,160
2017-10-25T11:29:53.952Z,235
2017-10-25T11:30:53.621Z,230
2017-10-25T11:31:53.908Z,245
2017-10-25T11:32:53.910Z,245
2017-10-25T11:33:53.567Z,265
2017-10-25T11:34:53.850Z,245
2017-10-25T11:35:53.829Z,235
2017-10-25T11:36:53.576Z,260
2017-10-25T11:37:53.473Z,240
2017-10-25T11:38:53.823Z,285
2017-10-25T11:39:53.764Z,290
2017-10-25T11:40:53.404Z,290
2017-10-25T11:41:53.701Z,295
2017-10-25T11:42:53.680Z,300
2017-10-25T11:43:53.038Z,280
2017-10-25T11:44:53.659Z,245
2017-10-25T11:45:53.310Z,260
2017-10-25T11:46:53.605Z,265
2017-10-25T11:47:53.657Z,240
2017-10-25T11:48:53.260Z,225
2017-10-25T11:49:53.568Z,180
2017-10-25T11:50:52.894Z,210
2017-10-25T11:51:53.206Z,200
2017-10-25T11:52:52.839Z,190
2017-10-25T11:53:53.472Z,175
2017-10-25T11:54:53.133Z,170
2017-10-25T11:55:53.435Z,160
2017-10-25T11:56:53.434Z,160
2017-10-25T11:57:53.411Z,160
2017-10-25T11:58:53.472Z,155
2017-10-25T11:59:53.345Z,160
2017-10-25T12:00:53.038Z,165
2017-10-25T12:01:53.308Z,175
2017-10-25T12:02:53.310Z,165
2017-10-25T12:03:53.287Z,155
2017-10-25T12:04:53.252Z,150
2017-10-25T12:05:53.242Z,160
2017-10-25T12:06:52.862Z,175
2017-10-25T12:07:53.161Z,170
2017-10-25T12:08:53.223Z,155
2017-10-25T12:09:52.493Z,165
2017-10-25T12:10:53.096Z,155
2017-10-25T12:11:53.206Z,165
2017-10-25T12:12:53.093Z,165
2017-10-25T12:13:53.075Z,175
2017-10-25T12:14:53.020Z,150
2017-10-25T12:15:52.721Z,130
2017-10-25T12:16:52.652Z,130
2017-10-25T12:17:52.965Z,125
2017-10-25T12:18:52.622Z,130
2017-10-25T12:19:52.999Z,130
2017-10-25T12:20:52.899Z,125
2017-10-25T12:21:52.561Z,105
2017-10-25T12:22:52.866Z,145
2017-10-25T12:23:52.849Z,165
2017-10-25T12:24:52.806Z,155
2017-10-25T12:25:52.153Z,155
2017-10-25T12:26:52.478Z,130
2017-10-25T12:27:52.786Z,135
2017-10-25T12:28:52.763Z,140
2017-10-25T12:29:52.398Z,155
2017-10-25T12:30:52.759Z,145
2017-10-25T12:31:52.362Z,150
2017-10-25T12:32:52.683Z,200
2017-10-25T12:33:52.323Z,145
2017-10-25T12:34:52.300Z,170
2017-10-25T12:35:52.581Z,195
2017-10-25T12:36:52.552Z,205
2017-10-25T12:37:52.531Z,185
2017-10-25T12:38:52.522Z,160
2017-10-25T12:39:52.492Z,170
2017-10-25T12:40:52.466Z,165
2017-10-25T12:41:52.454Z,155
2017-10-25T12:42:52.435Z,180
2017-10-25T12:43:52.087Z,200
2017-10-25T12:44:52.066Z,170
2017-10-25T12:45:52.382Z,175
2017-10-25T12:46:52.042Z,165
2017-10-25T12:47:52.319Z,170
2017-10-25T12:48:52.308Z,145
2017-10-25T12:49:52.276Z,150
2017-10-25T12:50:52.272Z,145
2017-10-25T12:51:52.248Z,120
2017-10-25T12:52:52.210Z,115
2017-10-25T12:53:52.192Z,110
2017-10-25T12:54:52.165Z,110
2017-10-25T12:55:51.833Z,110
2017-10-25T12:56:52.135Z,125
2017-10-25T12:57:51.823Z,115
2017-10-25T12:58:52.090Z,115
2017-10-25T12:59:52.065Z,110
2017-10-25T13:00:52.048Z,95
2017-10-25T13:01:52.029Z,100
2017-10-25T13:02:52.024Z,100
2017-10-25T13:03:51.998Z,90
2017-10-25T13:04:51.967Z,95
2017-10-25T13:05:51.614Z,85
2017-10-25T13:06:51.923Z,95
2017-10-25T13:07:51.901Z,95
2017-10-25T13:08:51.881Z,90
2017-10-25T13:09:51.558Z,85
2017-10-25T13:10:51.838Z,95
2017-10-25T13:11:51.825Z,100
2017-10-25T13:12:51.474Z,95
2017-10-25T13:13:51.779Z,95
2017-10-25T13:14:51.741Z,85
2017-10-25T13:15:51.428Z,110
2017-10-25T13:16:51.717Z,100
2017-10-25T13:17:51.684Z,80
2017-10-25T13:18:51.342Z,90
2017-10-25T13:19:51.646Z,80
2017-10-25T13:20:51.634Z,75
2017-10-25T13:21:51.701Z,80
2017-10-25T13:22:51.255Z,75
2017-10-25T13:23:51.565Z,60
2017-10-25T13:24:51.538Z,60
2017-10-25T13:25:51.520Z,60
2017-10-25T13:26:51.182Z,65
2017-10-25T13:27:51.157Z,60
2017-10-25T13:28:51.144Z,60
2017-10-25T13:29:51.122Z,70
2017-10-25T13:30:51.116Z,70
2017-10-25T13:31:51.392Z,65
2017-10-25T13:32:51.364Z,65
2017-10-25T13:33:51.349Z,70
2017-10-25T13:34:51.012Z,75
2017-10-25T13:35:51.295Z,80
2017-10-25T13:36:51.265Z,80
2017-10-25T13:37:51.261Z,75
2017-10-25T13:38:51.241Z,75
2017-10-25T13:39:51.219Z,80
2017-10-25T13:40:51.193Z,75
2017-10-25T13:41:51.162Z,80
2017-10-25T13:42:50.830Z,65
2017-10-25T13:43:50.804Z,65
2017-10-25T13:44:51.107Z,55
2017-10-25T13:45:50.756Z,65
2017-10-25T13:46:51.076Z,55
2017-10-25T13:47:50.718Z,60
2017-10-25T13:48:51.056Z,60
2017-10-25T13:49:50.990Z,45
2017-10-25T13:50:50.968Z,45
2017-10-25T13:51:50.961Z,40
2017-10-25T13:52:50.928Z,50
2017-10-25T13:53:50.913Z,45
2017-10-25T13:54:51.237Z,55
2017-10-25T13:55:50.881Z,45
2017-10-25T13:56:50.848Z,60
2017-10-25T13:57:50.831Z,70
2017-10-25T13:58:50.167Z,65
2017-10-25T13:59:50.457Z,75
2017-10-25T14:00:50.777Z,75
2017-10-25T14:01:50.749Z,60
2017-10-25T14:02:50.711Z,75
2017-10-25T14:03:50.707Z,70
2017-10-25T14:04:50.657Z,80
2017-10-25T14:05:50.657Z,65
2017-10-25T14:06:50.641Z,70
2017-10-25T14:07:50.611Z,75
2017-10-25T14:08:50.588Z,85
2017-10-25T14:09:50.555Z,80
2017-10-25T14:10:50.536Z,90
2017-10-25T14:11:50.908Z,75
2017-10-25T14:12:50.500Z,80
2017-10-25T14:13:50.503Z,90
2017-10-25T14:14:50.462Z,95
2017-10-25T14:15:50.440Z,110
2017-10-25T14:16:50.426Z,110
2017-10-25T14:17:50.393Z,100
2017-10-25T14:18:50.052Z,110